Time;durP1;ratioP1;P1;durP2;ratioP2;P2;SDS_P1;SDS_P2;PMS_P1;PMS_P2;Temp;Humidity;BMP_temperature;BMP_pressure;BME280_temperature;BME280_humidity;BME280_pressure;Samples;Min_cycle;Max_cycle;Signal;HPM_P1;HPM_P2
2023/12/05 00:01:16;;;;;;;6.00;3.87;;;;;3.20;99465.00;;;;5084338;28;20268;-68
2023/12/05 00:04:02;;;;;;;7.30;4.60;;;;;3.30;99464.00;;;;5077966;28;20231;-69
2023/12/05 00:06:49;;;;;;;8.77;5.33;;;;;3.30;99459.00;;;;5086897;28;20786;-70
2023/12/05 00:09:35;;;;;;;6.63;4.27;;;;;3.20;99458.00;;;;5078283;28;20759;-67
2023/12/05 00:12:23;;;;;;;14.77;4.53;;;;;3.20;99456.00;;;;5086046;28;20226;-72
2023/12/05 00:15:09;;;;;;;5.73;4.17;;;;;3.20;99456.00;;;;5079598;28;20227;-68
2023/12/05 00:17:56;;;;;;;5.80;4.07;;;;;3.20;99442.00;;;;5086368;28;20229;-71
2023/12/05 00:20:42;;;;;;;6.97;4.03;;;;;3.20;99449.00;;;;5079954;28;20283;-70
2023/12/05 00:23:29;;;;;;;8.33;4.80;;;;;3.30;99449.00;;;;5086989;28;20602;-68
2023/12/05 00:26:15;;;;;;;7.07;4.57;;;;;3.30;99456.00;;;;5082501;28;20231;-70
2023/12/05 00:29:03;;;;;;;6.33;3.63;;;;;3.30;99452.00;;;;5080671;28;20369;-69
2023/12/05 00:31:49;;;;;;;8.13;4.53;;;;;3.20;99447.00;;;;5086494;28;20288;-73
2023/12/05 00:34:35;;;;;;;5.67;4.90;;;;;3.30;99444.00;;;;5087258;28;20234;-68
2023/12/05 00:37:21;;;;;;;5.77;3.90;;;;;3.30;99433.00;;;;5076429;28;20235;-70
2023/12/05 00:40:09;;;;;;;7.07;4.63;;;;;3.30;99437.00;;;;5082898;28;20297;-69
2023/12/05 00:42:55;;;;;;;7.30;4.10;;;;;3.30;99438.00;;;;5087664;28;20227;-69
2023/12/05 00:45:43;;;;;;;5.67;4.07;;;;;3.30;99427.00;;;;5084887;28;20231;-71
2023/12/05 00:48:29;;;;;;;7.43;5.27;;;;;3.30;99429.00;;;;5078541;28;20767;-71
2023/12/05 00:51:16;;;;;;;6.20;3.63;;;;;3.20;99434.00;;;;5083683;28;20873;-70
2023/12/05 00:54:04;;;;;;;6.73;4.23;;;;;3.30;99435.00;;;;5075607;28;20235;-68
2023/12/05 00:56:50;;;;;;;7.30;4.00;;;;;3.30;99433.00;;;;5086211;28;20363;-69
2023/12/05 00:59:36;;;;;;;5.37;3.77;;;;;3.40;99421.00;;;;5085925;28;20234;-71
2023/12/05 01:02:24;;;;;;;7.73;4.00;;;;;3.40;99430.00;;;;5083385;28;20239;-70
2023/12/05 01:05:10;;;;;;;5.93;3.83;;;;;3.30;99428.00;;;;5078399;28;20266;-70
2023/12/05 01:07:57;;;;;;;5.37;4.30;;;;;3.30;99426.00;;;;5082291;28;20761;-66
2023/12/05 01:10:44;;;;;;;6.70;3.93;;;;;3.30;99424.00;;;;5084391;28;20228;-69
2023/12/05 01:13:31;;;;;;;7.43;4.73;;;;;3.20;99424.00;;;;5083424;28;20243;-69
2023/12/05 01:16:17;;;;;;;9.93;4.80;;;;;3.30;99420.00;;;;5083162;28;20235;-67
2023/12/05 01:19:05;;;;;;;7.33;4.13;;;;;3.30;99418.00;;;;5084789;28;20223;-68
2023/12/05 01:21:51;;;;;;;6.83;4.43;;;;;3.30;99421.00;;;;5085198;28;20230;-66
2023/12/05 01:24:38;;;;;;;8.33;5.00;;;;;3.30;99420.00;;;;5083590;28;20326;-69
2023/12/05 01:27:24;;;;;;;5.97;4.13;;;;;3.30;99425.00;;;;5086163;28;20607;-70
2023/12/05 01:30:11;;;;;;;3.87;3.27;;;;;3.40;99423.00;;;;5079204;28;20239;-69
2023/12/05 01:32:57;;;;;;;6.20;4.37;;;;;3.40;99416.00;;;;5086087;28;20281;-69
2023/12/05 01:35:45;;;;;;;6.07;4.03;;;;;3.40;99417.00;;;;5084925;28;20709;-65
2023/12/05 01:38:31;;;;;;;6.13;4.37;;;;;3.30;99409.00;;;;5085650;28;20333;-70
2023/12/05 01:41:18;;;;;;;6.63;4.13;;;;;3.40;99422.00;;;;5083739;28;20238;-70
2023/12/05 01:44:04;;;;;;;6.20;4.73;;;;;3.30;99414.00;;;;5084850;28;20227;-69
2023/12/05 01:46:50;;;;;;;7.60;4.90;;;;;3.30;99413.00;;;;5084876;28;20227;-70
2023/12/05 01:49:37;;;;;;;6.67;4.20;;;;;3.40;99412.00;;;;5085308;28;20243;-68
2023/12/05 01:52:25;;;;;;;6.77;4.13;;;;;3.40;99410.00;;;;5085696;28;20246;-70
2023/12/05 01:55:11;;;;;;;7.83;4.83;;;;;3.40;99406.00;;;;5072051;28;20226;-68
2023/12/05 01:57:59;;;;;;;8.80;4.90;;;;;3.40;99405.00;;;;5079396;28;20235;-70
2023/12/05 02:00:45;;;;;;;7.10;3.87;;;;;3.40;99402.00;;;;5083524;28;20627;-70
2023/12/05 02:03:32;;;;;;;4.60;3.83;;;;;3.40;99412.00;;;;5080653;28;20594;-71
2023/12/05 02:06:21;;;;;;;7.87;4.23;;;;;3.40;99395.00;;;;5080245;28;20304;-70
2023/12/05 02:09:10;;;;;;;6.87;4.93;;;;;3.40;99398.00;;;;5079116;28;20246;-68
2023/12/05 02:11:57;;;;;;;7.50;3.90;;;;;3.40;99393.00;;;;5077913;28;20227;-72
2023/12/05 02:14:43;;;;;;;7.07;3.90;;;;;3.40;99391.00;;;;5083322;28;20813;-71
2023/12/05 02:17:36;;;;;;;7.87;4.47;;;;;3.40;99387.00;;;;5077576;28;20227;-69
2023/12/05 02:20:28;;;;;;;6.33;4.27;;;;;3.40;99395.00;;;;5080590;28;20232;-70
2023/12/05 02:23:29;;;;;;;4.87;3.53;;;;;3.40;99382.00;;;;5076022;28;20223;-70
2023/12/05 02:26:28;;;;;;;5.47;4.03;;;;;3.40;99383.00;;;;5078876;28;20225;-69
2023/12/05 02:29:15;;;;;;;5.33;4.07;;;;;3.40;99377.00;;;;5084723;28;20223;-70
2023/12/05 02:32:02;;;;;;;8.27;4.30;;;;;3.40;99372.00;;;;5084395;28;20720;-70
2023/12/05 02:34:49;;;;;;;7.87;4.60;;;;;3.40;99369.00;;;;5084980;28;20281;-70
2023/12/05 02:37:43;;;;;;;6.63;3.93;;;;;3.40;99368.00;;;;5081410;28;20312;-70
2023/12/05 02:40:35;;;;;;;7.07;4.83;;;;;3.50;99370.00;;;;5081601;28;20246;-70
2023/12/05 02:43:31;;;;;;;5.50;3.63;;;;;3.50;99369.00;;;;5079303;28;20301;-69
2023/12/05 02:46:21;;;;;;;6.77;4.30;;;;;3.50;99369.00;;;;5075058;28;20239;-70
2023/12/05 02:49:08;;;;;;;5.93;4.13;;;;;3.50;99370.00;;;;5076884;28;20228;-71
2023/12/05 02:51:54;;;;;;;6.53;4.57;;;;;3.50;99367.00;;;;5082350;28;20736;-69
2023/12/05 02:54:40;;;;;;;5.50;4.20;;;;;3.50;99370.00;;;;5081557;28;20222;-69
2023/12/05 02:57:27;;;;;;;5.60;3.93;;;;;3.50;99369.00;;;;5075199;28;20358;-68
2023/12/05 03:00:14;;;;;;;6.83;5.00;;;;;3.50;99370.00;;;;5077646;28;20385;-73
2023/12/05 03:03:03;;;;;;;6.40;4.60;;;;;3.50;99370.00;;;;5082015;28;20235;-70
2023/12/05 03:05:49;;;;;;;7.70;4.63;;;;;3.50;99373.00;;;;5083781;28;20274;-68
2023/12/05 03:08:35;;;;;;;5.40;3.73;;;;;3.50;99378.00;;;;5078624;28;20288;-74
2023/12/05 03:11:22;;;;;;;7.03;4.13;;;;;3.50;99373.00;;;;5077965;28;20243;-68
2023/12/05 03:14:08;;;;;;;6.50;4.60;;;;;3.50;99372.00;;;;5081683;28;20590;-69
2023/12/05 03:16:54;;;;;;;6.30;4.83;;;;;3.50;99363.00;;;;5081913;28;20285;-71
2023/12/05 03:19:42;;;;;;;5.03;3.90;;;;;3.50;99376.00;;;;5080746;28;20357;-70
2023/12/05 03:22:29;;;;;;;7.00;4.40;;;;;3.50;99373.00;;;;5079722;28;20302;-71
2023/12/05 03:25:15;;;;;;;6.20;4.00;;;;;3.50;99370.00;;;;5070585;28;20321;-72
2023/12/05 03:28:01;;;;;;;4.50;3.83;;;;;3.50;99365.00;;;;5077360;28;20235;-68
2023/12/05 03:30:48;;;;;;;7.43;4.73;;;;;3.50;99360.00;;;;5080918;28;21058;-69
2023/12/05 03:33:36;;;;;;;6.33;4.83;;;;;3.50;99363.00;;;;5079555;28;20231;-70
2023/12/05 03:36:24;;;;;;;5.07;3.63;;;;;3.50;99365.00;;;;5082048;28;20227;-67
2023/12/05 03:39:10;;;;;;;6.20;4.43;;;;;3.50;99358.00;;;;5084191;28;20227;-70
2023/12/05 03:41:56;;;;;;;5.53;3.77;;;;;3.50;99362.00;;;;5083838;28;20238;-68
2023/12/05 03:44:43;;;;;;;6.50;4.37;;;;;3.50;99358.00;;;;5079696;28;20624;-69
2023/12/05 03:47:29;;;;;;;5.40;4.03;;;;;3.60;99359.00;;;;5081999;28;20317;-68
2023/12/05 03:50:15;;;;;;;5.63;4.17;;;;;3.50;99350.00;;;;5075797;28;20227;-69
2023/12/05 03:53:04;;;;;;;7.13;4.20;;;;;3.50;99352.00;;;;5083595;28;20222;-71
2023/12/05 03:55:51;;;;;;;6.97;4.33;;;;;3.60;99358.00;;;;5077524;28;20744;-69
2023/12/05 03:58:37;;;;;;;7.37;5.17;;;;;3.60;99351.00;;;;5083146;28;20744;-69
2023/12/05 04:01:23;;;;;;;7.27;5.20;;;;;3.60;99357.00;;;;5081012;28;20239;-68
2023/12/05 04:04:10;;;;;;;8.87;4.87;;;;;3.70;99349.00;;;;5086333;28;20227;-68
2023/12/05 04:06:56;;;;;;;5.30;4.10;;;;;3.60;99354.00;;;;5086717;28;20280;-68
2023/12/05 04:09:46;;;;;;;6.03;3.97;;;;;3.60;99351.00;;;;5091131;28;20300;-72
2023/12/05 04:12:32;;;;;;;6.77;4.93;;;;;3.60;99359.00;;;;5080849;28;20255;-68
2023/12/05 04:15:18;;;;;;;6.50;4.80;;;;;3.60;99353.00;;;;5088240;28;20317;-70
2023/12/05 04:18:05;;;;;;;7.13;4.37;;;;;3.70;99352.00;;;;5082682;28;20882;-70
2023/12/05 04:20:51;;;;;;;8.10;4.07;;;;;3.70;99349.00;;;;5082259;28;20238;-69
2023/12/05 04:23:37;;;;;;;7.57;5.00;;;;;3.60;99349.00;;;;5087015;28;20610;-70
2023/12/05 04:26:25;;;;;;;8.37;4.90;;;;;3.60;99351.00;;;;5088324;28;20766;-68
2023/12/05 04:29:13;;;;;;;5.50;3.60;;;;;3.60;99344.00;;;;5086364;28;20269;-69
2023/12/05 04:32:02;;;;;;;6.57;4.57;;;;;3.70;99350.00;;;;5087409;28;20238;-71
2023/12/05 04:34:49;;;;;;;7.00;4.63;;;;;3.70;99345.00;;;;5089009;28;21796;-70
2023/12/05 04:37:35;;;;;;;6.00;4.03;;;;;3.70;99341.00;;;;5081071;28;20832;-68
2023/12/05 04:40:26;;;;;;;8.33;5.07;;;;;3.70;99343.00;;;;5081315;28;20242;-70
2023/12/05 04:43:13;;;;;;;7.77;5.10;;;;;3.70;99343.00;;;;5079285;28;20618;-71
2023/12/05 04:45:59;;;;;;;6.73;4.47;;;;;3.70;99342.00;;;;5087020;28;20231;-68
2023/12/05 04:48:46;;;;;;;8.00;5.03;;;;;3.70;99351.00;;;;5086211;28;20251;-69
2023/12/05 04:51:32;;;;;;;9.67;4.87;;;;;3.70;99340.00;;;;5073896;28;20315;-69
2023/12/05 04:54:18;;;;;;;7.40;5.17;;;;;3.80;99343.00;;;;5086769;28;21198;-68
2023/12/05 04:57:05;;;;;;;6.90;4.30;;;;;3.70;99337.00;;;;5092850;28;20223;-69
2023/12/05 04:59:53;;;;;;;6.53;4.60;;;;;3.70;99344.00;;;;5086374;28;20361;-69
2023/12/05 05:02:40;;;;;;;5.53;4.00;;;;;3.70;99354.00;;;;5080952;28;20227;-69
2023/12/05 05:05:26;;;;;;;8.23;5.43;;;;;3.80;99347.00;;;;5086175;28;20231;-71
2023/12/05 05:08:12;;;;;;;8.17;5.00;;;;;3.80;99343.00;;;;5084474;28;20246;-68
2023/12/05 05:10:59;;;;;;;8.83;5.03;;;;;3.80;99350.00;;;;5083907;28;20259;-69
2023/12/05 05:13:45;;;;;;;7.90;4.83;;;;;3.80;99356.00;;;;5081600;28;20265;-69
2023/12/05 05:16:44;;;;;;;8.63;5.13;;;;;3.80;99348.00;;;;5085781;28;20236;-71
2023/12/05 05:19:31;;;;;;;6.80;4.80;;;;;3.70;99349.00;;;;5085512;28;20227;-70
2023/12/05 05:22:17;;;;;;;6.17;4.60;;;;;3.80;99347.00;;;;5085928;28;20786;-69
2023/12/05 05:25:04;;;;;;;9.43;6.00;;;;;3.80;99348.00;;;;5086583;28;20222;-69
2023/12/05 05:27:50;;;;;;;9.67;5.27;;;;;3.80;99349.00;;;;5082676;28;20242;-69
2023/12/05 05:30:37;;;;;;;7.67;4.63;;;;;3.80;99345.00;;;;5079773;28;20230;-70
2023/12/05 05:33:24;;;;;;;9.40;4.67;;;;;3.80;99353.00;;;;5078952;28;20361;-69
2023/12/05 05:36:13;;;;;;;6.90;4.93;;;;;3.80;99357.00;;;;5086372;28;20287;-70
2023/12/05 05:39:00;;;;;;;9.47;5.40;;;;;3.80;99346.00;;;;5085369;28;20227;-69
2023/12/05 05:41:46;;;;;;;7.70;4.83;;;;;3.80;99351.00;;;;5086758;28;20728;-71
2023/12/05 05:44:33;;;;;;;8.13;4.97;;;;;3.80;99346.00;;;;5078095;28;20285;-69
2023/12/05 05:47:19;;;;;;;7.90;5.30;;;;;3.80;99351.00;;;;5085074;28;20238;-71
2023/12/05 05:50:08;;;;;;;12.03;6.10;;;;;3.70;99343.00;;;;5085202;28;20227;-72
2023/12/05 05:52:54;;;;;;;7.57;4.80;;;;;3.80;99346.00;;;;5081953;28;20235;-69
2023/12/05 05:55:41;;;;;;;8.70;5.33;;;;;3.80;99349.00;;;;5084707;28;20257;-70
2023/12/05 05:58:27;;;;;;;9.10;5.23;;;;;3.80;99352.00;;;;5083670;28;20276;-69
2023/12/05 06:01:13;;;;;;;6.70;5.00;;;;;3.80;99356.00;;;;5086828;28;20238;-71
2023/12/05 06:03:59;;;;;;;7.47;4.80;;;;;3.90;99354.00;;;;5081987;28;20230;-69
2023/12/05 06:06:47;;;;;;;7.63;5.50;;;;;3.90;99355.00;;;;5084138;28;20235;-69
2023/12/05 06:09:33;;;;;;;9.67;5.90;;;;;3.90;99361.00;;;;5080888;28;20609;-71
2023/12/05 06:12:19;;;;;;;10.80;5.90;;;;;3.90;99347.00;;;;5084865;28;20284;-69
2023/12/05 06:15:07;;;;;;;8.83;5.03;;;;;3.90;99354.00;;;;5085071;28;20278;-68
2023/12/05 06:17:53;;;;;;;6.80;5.00;;;;;3.90;99360.00;;;;5084088;28;20726;-69
2023/12/05 06:20:40;;;;;;;8.83;5.30;;;;;3.90;99356.00;;;;5083421;28;20227;-73
2023/12/05 06:23:28;;;;;;;7.17;4.33;;;;;3.90;99358.00;;;;5084236;28;20223;-70
2023/12/05 06:26:14;;;;;;;9.63;6.00;;;;;3.90;99353.00;;;;5083433;28;20265;-70
2023/12/05 06:29:02;;;;;;;13.00;5.37;;;;;3.90;99358.00;;;;5083609;28;20230;-71
2023/12/05 06:31:48;;;;;;;5.63;4.47;;;;;3.90;99363.00;;;;5078844;28;20457;-70
2023/12/05 06:34:34;;;;;;;7.33;4.93;;;;;3.90;99359.00;;;;5082437;28;20226;-72
2023/12/05 06:37:21;;;;;;;7.53;5.43;;;;;3.90;99354.00;;;;5080892;28;20227;-72
2023/12/05 06:40:10;;;;;;;7.63;5.33;;;;;3.90;99365.00;;;;5081740;28;20710;-71
2023/12/05 06:42:56;;;;;;;7.27;5.10;;;;;3.90;99370.00;;;;5075708;28;20250;-71
2023/12/05 06:45:43;;;;;;;6.90;4.73;;;;;4.00;99373.00;;;;5079554;28;20223;-70
2023/12/05 06:48:29;;;;;;;8.50;5.97;;;;;3.90;99375.00;;;;5085398;28;20711;-72
2023/12/05 06:51:18;;;;;;;10.47;6.17;;;;;4.00;99369.00;;;;5076936;28;20790;-71
2023/12/05 06:54:04;;;;;;;7.43;5.17;;;;;4.00;99373.00;;;;5082518;28;20231;-71
2023/12/05 06:56:52;;;;;;;8.93;5.47;;;;;4.10;99377.00;;;;5078543;28;20219;-72
2023/12/05 06:59:40;;;;;;;8.43;4.90;;;;;4.10;99385.00;;;;5083857;28;20250;-71
2023/12/05 07:02:26;;;;;;;9.23;5.53;;;;;4.10;99383.00;;;;5082467;28;20231;-70
2023/12/05 07:05:13;;;;;;;7.77;4.97;;;;;4.10;99376.00;;;;5082309;28;20226;-71
2023/12/05 07:08:00;;;;;;;8.90;5.70;;;;;4.10;99386.00;;;;5078028;28;20300;-71
2023/12/05 07:10:47;;;;;;;9.17;5.70;;;;;4.10;99391.00;;;;5087941;28;20367;-71
2023/12/05 07:13:34;;;;;;;7.43;4.60;;;;;4.10;99384.00;;;;5082107;28;20219;-70
2023/12/05 07:16:20;;;;;;;5.93;4.80;;;;;4.10;99396.00;;;;5083867;28;20325;-72
2023/12/05 07:19:07;;;;;;;10.03;5.20;;;;;4.20;99399.00;;;;5083423;28;20230;-69
2023/12/05 07:21:53;;;;;;;10.60;6.10;;;;;4.10;99401.00;;;;5078045;28;20308;-71
2023/12/05 07:24:40;;;;;;;9.80;5.57;;;;;4.20;99404.00;;;;5076754;28;20603;-70
2023/12/05 07:27:28;;;;;;;10.13;6.50;;;;;4.20;99410.00;;;;5083706;28;20231;-71
2023/12/05 07:30:16;;;;;;;6.73;5.30;;;;;4.30;99406.00;;;;5084010;28;20306;-71
2023/12/05 07:33:03;;;;;;;14.80;7.00;;;;;4.30;99411.00;;;;5090688;28;20365;-71
2023/12/05 07:35:49;;;;;;;11.03;5.80;;;;;4.30;99420.00;;;;5077279;28;20235;-73
2023/12/05 07:38:36;;;;;;;8.37;5.33;;;;;4.30;99419.00;;;;5075599;28;20276;-71
2023/12/05 07:41:23;;;;;;;8.90;5.13;;;;;4.30;99421.00;;;;5085611;28;20282;-70
2023/12/05 07:44:09;;;;;;;9.07;6.00;;;;;4.30;99421.00;;;;5094535;28;20280;-70
2023/12/05 07:46:57;;;;;;;12.37;5.97;;;;;4.30;99425.00;;;;5082753;28;20302;-71
2023/12/05 07:49:45;;;;;;;11.17;6.47;;;;;4.30;99424.00;;;;5078978;28;20354;-69
2023/12/05 07:52:31;;;;;;;10.83;6.27;;;;;4.30;99420.00;;;;5085815;28;20903;-70
2023/12/05 07:55:18;;;;;;;7.60;5.47;;;;;4.20;99426.00;;;;5087821;28;20312;-70
2023/12/05 07:58:04;;;;;;;9.33;6.30;;;;;4.30;99431.00;;;;5087399;28;20227;-73
2023/12/05 08:00:51;;;;;;;8.53;5.20;;;;;4.30;99432.00;;;;5087832;28;20320;-72
2023/12/05 08:03:39;;;;;;;10.23;5.93;;;;;4.30;99439.00;;;;5086250;28;20270;-70
2023/12/05 08:06:25;;;;;;;10.23;5.63;;;;;4.30;99444.00;;;;5083514;28;20224;-70
2023/12/05 08:09:11;;;;;;;11.47;6.70;;;;;4.30;99435.00;;;;5084268;28;20227;-71
2023/12/05 08:11:58;;;;;;;8.93;6.40;;;;;4.30;99437.00;;;;5085554;28;20600;-71
2023/12/05 08:14:44;;;;;;;7.77;4.93;;;;;4.30;99449.00;;;;5081656;28;20231;-70
2023/12/05 08:17:31;;;;;;;8.90;6.50;;;;;4.30;99452.00;;;;5083736;28;20454;-70
2023/12/05 08:20:18;;;;;;;9.40;6.03;;;;;4.40;99449.00;;;;5084335;28;20235;-71
2023/12/05 08:23:05;;;;;;;10.33;6.57;;;;;4.40;99448.00;;;;5080213;28;20216;-71
2023/12/05 08:25:52;;;;;;;10.17;6.10;;;;;4.40;99449.00;;;;5078410;28;20301;-72
2023/12/05 08:28:38;;;;;;;9.90;6.20;;;;;4.40;99458.00;;;;5084930;28;20219;-71
2023/12/05 08:31:24;;;;;;;8.97;5.73;;;;;4.40;99468.00;;;;5082640;28;20231;-70
2023/12/05 08:34:12;;;;;;;9.07;6.23;;;;;4.50;99462.00;;;;5084895;28;20325;-70
2023/12/05 08:37:00;;;;;;;9.70;5.70;;;;;4.50;99465.00;;;;5076233;28;20329;-71
2023/12/05 08:39:47;;;;;;;7.47;5.50;;;;;4.50;99464.00;;;;5079038;28;20317;-70
2023/12/05 08:42:33;;;;;;;11.83;7.47;;;;;4.60;99453.00;;;;5079572;28;20231;-70
2023/12/05 08:45:20;;;;;;;9.80;6.27;;;;;4.60;99457.00;;;;5086227;28;20260;-71
2023/12/05 08:48:06;;;;;;;13.50;6.93;;;;;4.60;99456.00;;;;5082220;28;20231;-71
2023/12/05 08:50:53;;;;;;;12.87;7.37;;;;;4.60;99458.00;;;;5080263;28;20229;-70
2023/12/05 08:53:40;;;;;;;12.27;6.57;;;;;4.70;99464.00;;;;5081360;28;20314;-71
2023/12/05 08:56:27;;;;;;;11.93;6.87;;;;;4.70;99461.00;;;;5082901;28;20254;-71
2023/12/05 08:59:13;;;;;;;11.67;7.00;;;;;4.80;99468.00;;;;5077780;28;20230;-72
2023/12/05 09:02:00;;;;;;;11.90;6.60;;;;;4.80;99460.00;;;;5076609;28;20238;-71
2023/12/05 09:04:46;;;;;;;12.97;7.47;;;;;4.80;99464.00;;;;5079446;28;20222;-70
2023/12/05 09:07:33;;;;;;;13.07;8.57;;;;;4.90;99469.00;;;;5074080;28;20282;-70
2023/12/05 09:10:21;;;;;;;12.37;7.53;;;;;4.90;99462.00;;;;5074123;28;20262;-72
2023/12/05 09:13:08;;;;;;;14.70;7.40;;;;;4.90;99471.00;;;;5089200;28;20365;-71
2023/12/05 09:15:54;;;;;;;14.70;7.57;;;;;4.90;99475.00;;;;5077524;28;20227;-73
2023/12/05 09:18:41;;;;;;;13.17;8.13;;;;;4.90;99475.00;;;;5089752;28;21107;-68
2023/12/05 09:21:28;;;;;;;11.63;6.97;;;;;4.90;99478.00;;;;5083647;28;20592;-70
2023/12/05 09:24:15;;;;;;;14.47;7.57;;;;;4.90;99476.00;;;;5081826;28;20794;-71
2023/12/05 09:27:03;;;;;;;11.93;7.27;;;;;5.00;99477.00;;;;5077854;28;20309;-71
2023/12/05 09:29:49;;;;;;;14.43;7.60;;;;;5.00;99487.00;;;;5085644;28;20321;-73
2023/12/05 09:32:36;;;;;;;12.40;7.37;;;;;5.00;99486.00;;;;5103185;28;20875;-73
2023/12/05 09:35:23;;;;;;;12.83;7.67;;;;;5.10;99491.00;;;;5103962;28;20281;-76
2023/12/05 09:38:09;;;;;;;9.17;6.37;;;;;5.10;99488.00;;;;5100784;28;20219;-75
2023/12/05 09:40:57;;;;;;;22.83;8.30;;;;;5.10;99494.00;;;;5104422;28;20245;-72
2023/12/05 09:43:45;;;;;;;12.27;7.87;;;;;5.20;99488.00;;;;5105512;28;22364;-73
2023/12/05 09:46:37;;;;;;;12.77;7.63;;;;;5.20;99493.00;;;;5106236;28;20312;-72
2023/12/05 09:49:34;;;;;;;11.93;7.83;;;;;5.30;99495.00;;;;5098629;28;20344;-74
2023/12/05 09:52:22;;;;;;;15.33;8.73;;;;;5.20;99495.00;;;;5103026;28;20242;-73
2023/12/05 09:55:09;;;;;;;12.97;7.37;;;;;5.30;99498.00;;;;5098980;28;20294;-72
2023/12/05 09:57:56;;;;;;;12.27;7.33;;;;;5.30;99503.00;;;;5075497;28;20239;-70
2023/12/05 10:00:46;;;;;;;12.83;8.10;;;;;5.30;99487.00;;;;5079480;28;20309;-73
2023/12/05 10:03:35;;;;;;;13.10;7.93;;;;;5.30;99497.00;;;;5080705;28;20231;-73
2023/12/05 10:06:24;;;;;;;12.50;7.67;;;;;5.40;99496.00;;;;5077775;28;20257;-74
2023/12/05 10:09:11;;;;;;;11.53;7.13;;;;;5.40;99494.00;;;;5077726;28;20600;-72
2023/12/05 10:11:59;;;;;;;15.73;9.53;;;;;5.40;99499.00;;;;5066300;28;21059;-73
2023/12/05 10:14:45;;;;;;;16.33;8.70;;;;;5.40;99499.00;;;;5080714;28;20227;-72
2023/12/05 10:17:34;;;;;;;16.20;9.03;;;;;5.50;99501.00;;;;5082125;28;20234;-71
2023/12/05 10:20:21;;;;;;;18.47;8.27;;;;;5.50;99505.00;;;;5079895;28;20309;-71
2023/12/05 10:23:08;;;;;;;12.33;7.37;;;;;5.50;99504.00;;;;5083225;28;20235;-72
2023/12/05 10:25:54;;;;;;;12.97;8.07;;;;;5.50;99499.00;;;;5083870;28;20743;-74
2023/12/05 10:28:50;;;;;;;18.23;8.43;;;;;5.50;99503.00;;;;5078462;28;20299;-73
2023/12/05 10:31:37;;;;;;;13.27;7.80;;;;;5.60;99514.00;;;;5076754;28;20235;-77
2023/12/05 10:34:24;;;;;;;12.30;7.63;;;;;5.60;99497.00;;;;5087974;28;20242;-73
2023/12/05 10:37:11;;;;;;;11.23;7.33;;;;;5.60;99500.00;;;;5071762;28;20751;-74
2023/12/05 10:39:59;;;;;;;11.73;6.83;;;;;5.60;99495.00;;;;5071122;28;20230;-73
2023/12/05 10:42:45;;;;;;;13.03;8.10;;;;;5.70;99493.00;;;;5083148;28;20301;-74
2023/12/05 10:45:32;;;;;;;12.93;7.87;;;;;5.70;99497.00;;;;5082016;28;20227;-72
2023/12/05 10:48:19;;;;;;;12.03;7.23;;;;;5.70;99497.00;;;;5085071;28;20747;-71
2023/12/05 10:51:08;;;;;;;12.47;7.67;;;;;5.70;99501.00;;;;5077938;28;20239;-75
2023/12/05 10:53:55;;;;;;;10.27;7.40;;;;;5.70;99499.00;;;;5081841;28;20231;-71
2023/12/05 10:56:56;;;;;;;14.53;7.70;;;;;5.80;99500.00;;;;5083538;28;20346;-70
2023/12/05 10:59:43;;;;;;;10.57;6.40;;;;;5.80;99493.00;;;;5080108;28;20344;-72
2023/12/05 11:02:30;;;;;;;12.13;7.20;;;;;5.80;99492.00;;;;5086174;28;20223;-72
2023/12/05 11:05:17;;;;;;;8.50;6.13;;;;;5.80;99503.00;;;;5077356;28;20368;-69
2023/12/05 11:08:05;;;;;;;9.70;6.37;;;;;5.90;99498.00;;;;5074276;28;20746;-71
2023/12/05 11:10:54;;;;;;;10.50;6.73;;;;;5.90;99499.00;;;;5074463;28;20244;-71
2023/12/05 11:13:41;;;;;;;10.93;6.37;;;;;6.00;99508.00;;;;5088790;28;20299;-74
2023/12/05 11:16:31;;;;;;;8.40;5.73;;;;;6.10;99502.00;;;;5083138;28;20639;-70
2023/12/05 11:19:29;;;;;;;6.50;3.97;;;;;6.20;99512.00;;;;5084685;28;20242;-70
2023/12/05 11:22:27;;;;;;;6.63;4.37;;;;;6.20;99510.00;;;;5072852;28;20226;-73
2023/12/05 11:25:28;;;;;;;5.50;3.03;;;;;6.30;99503.00;;;;5075057;28;20721;-71
2023/12/05 11:28:37;;;;;;;7.43;4.60;;;;;6.40;99498.00;;;;5076714;28;20231;-71
2023/12/05 11:31:29;;;;;;;5.43;3.80;;;;;6.40;99508.00;;;;5082420;28;20799;-69
2023/12/05 11:34:38;;;;;;;8.70;3.67;;;;;6.50;99511.00;;;;5083466;28;20690;-70
2023/12/05 11:37:39;;;;;;;6.93;3.43;;;;;6.70;99514.00;;;;5083874;28;20227;-69
2023/12/05 11:40:27;;;;;;;6.33;3.80;;;;;6.70;99514.00;;;;5083219;28;20273;-70
2023/12/05 11:43:14;;;;;;;5.73;3.87;;;;;6.70;99518.00;;;;5085654;28;20339;-70
2023/12/05 11:46:01;;;;;;;3.83;2.67;;;;;6.80;99515.00;;;;5082791;28;20335;-71
2023/12/05 11:48:48;;;;;;;3.97;2.93;;;;;6.80;99516.00;;;;5079826;28;20225;-73
2023/12/05 11:51:36;;;;;;;5.03;3.00;;;;;6.90;99520.00;;;;5084198;28;20247;-72
2023/12/05 11:54:24;;;;;;;4.70;3.00;;;;;6.90;99518.00;;;;5083347;28;20238;-72
2023/12/05 11:57:14;;;;;;;1.50;1.40;;;;;7.00;99521.00;;;;5077497;28;20362;-76
2023/12/05 12:00:00;;;;;;;2.90;2.40;;;;;7.00;99518.00;;;;5075584;28;20456;-72
2023/12/05 12:02:49;;;;;;;4.37;2.90;;;;;7.00;99528.00;;;;5080010;28;20301;-74
2023/12/05 12:05:35;;;;;;;4.70;2.70;;;;;7.00;99533.00;;;;5079703;28;20686;-75
2023/12/05 12:08:22;;;;;;;3.17;2.57;;;;;7.00;99535.00;;;;5084789;28;20319;-71
2023/12/05 12:11:08;;;;;;;3.50;2.07;;;;;7.00;99535.00;;;;5083868;28;20223;-75
2023/12/05 12:13:56;;;;;;;2.60;1.97;;;;;7.10;99528.00;;;;5085227;28;20486;-75
2023/12/05 12:16:43;;;;;;;2.93;2.40;;;;;7.10;99535.00;;;;5083273;28;20233;-74
2023/12/05 12:19:29;;;;;;;4.20;2.03;;;;;7.10;99537.00;;;;5082677;28;20299;-74
2023/12/05 12:22:16;;;;;;;6.33;2.20;;;;;7.20;99538.00;;;;5081177;28;20229;-74
2023/12/05 12:25:09;;;;;;;2.53;1.90;;;;;7.20;99536.00;;;;5080076;28;20239;-74
2023/12/05 12:27:56;;;;;;;2.10;1.67;;;;;7.20;99535.00;;;;5082095;28;20245;-74
2023/12/05 12:30:44;;;;;;;1.83;1.73;;;;;7.20;99544.00;;;;5087139;28;20943;-74
2023/12/05 12:33:37;;;;;;;3.23;1.90;;;;;7.20;99539.00;;;;5080652;28;20607;-75
2023/12/05 12:36:23;;;;;;;2.07;1.90;;;;;7.20;99545.00;;;;5092383;28;20239;-76
2023/12/05 12:39:15;;;;;;;1.80;1.47;;;;;7.20;99540.00;;;;5081898;28;20595;-73
2023/12/05 12:42:01;;;;;;;2.03;1.60;;;;;7.30;99548.00;;;;5089055;28;20631;-74
2023/12/05 12:44:48;;;;;;;2.07;1.80;;;;;7.20;99557.00;;;;5087307;28;20251;-75
2023/12/05 12:47:36;;;;;;;3.73;1.70;;;;;7.30;99551.00;;;;5086169;28;20298;-74
2023/12/05 12:50:22;;;;;;;7.37;2.13;;;;;7.20;99549.00;;;;5081996;28;20242;-73
2023/12/05 12:53:08;;;;;;;2.20;1.80;;;;;7.30;99560.00;;;;5087137;28;20245;-73
2023/12/05 12:55:54;;;;;;;1.97;1.47;;;;;7.20;99560.00;;;;5085036;28;20306;-73
2023/12/05 12:58:42;;;;;;;2.20;1.77;;;;;7.20;99556.00;;;;5082252;28;20787;-73
2023/12/05 13:01:28;;;;;;;3.77;1.90;;;;;7.20;99570.00;;;;5075228;28;20712;-71
2023/12/05 13:04:16;;;;;;;2.30;1.93;;;;;7.20;99566.00;;;;5086994;28;20220;-71
2023/12/05 13:07:04;;;;;;;2.13;1.70;;;;;7.20;99571.00;;;;5084034;28;20318;-69
2023/12/05 13:09:50;;;;;;;6.43;4.17;;;;;7.20;99564.00;;;;5087093;28;20232;-74
2023/12/05 13:12:37;;;;;;;2.07;1.83;;;;;7.10;99576.00;;;;5085163;28;20246;-69
2023/12/05 13:15:27;;;;;;;2.87;2.13;;;;;7.20;99571.00;;;;5077568;28;20241;-70
2023/12/05 13:18:13;;;;;;;3.00;2.10;;;;;7.10;99576.00;;;;5086011;28;20279;-72
2023/12/05 13:21:01;;;;;;;4.10;3.33;;;;;7.10;99570.00;;;;5080516;28;20232;-74
2023/12/05 13:23:49;;;;;;;2.30;2.10;;;;;7.10;99573.00;;;;5081407;28;20296;-75
2023/12/05 13:26:37;;;;;;;4.80;2.93;;;;;7.20;99573.00;;;;5085670;28;20431;-74
2023/12/05 13:29:23;;;;;;;3.30;2.47;;;;;7.10;99579.00;;;;5087080;28;20757;-76
2023/12/05 13:32:09;;;;;;;2.77;2.27;;;;;7.10;99577.00;;;;5081966;28;20233;-75
2023/12/05 13:34:56;;;;;;;3.17;2.60;;;;;7.10;99576.00;;;;5079504;28;20612;-75
2023/12/05 13:37:44;;;;;;;3.30;3.00;;;;;7.10;99581.00;;;;5083941;28;20226;-72
2023/12/05 13:40:31;;;;;;;3.40;2.97;;;;;7.00;99583.00;;;;5093548;28;20236;-72
2023/12/05 13:43:17;;;;;;;4.40;2.97;;;;;7.00;99568.00;;;;5075413;28;20624;-74
2023/12/05 13:46:04;;;;;;;4.93;3.80;;;;;7.00;99579.00;;;;5088994;28;20236;-74
2023/12/05 13:48:51;;;;;;;11.43;5.60;;;;;7.00;99583.00;;;;5085972;28;20236;-72
2023/12/05 13:51:37;;;;;;;6.33;4.57;;;;;6.90;99584.00;;;;5091584;28;20244;-70
2023/12/05 13:54:25;;;;;;;3.73;3.00;;;;;6.90;99590.00;;;;5082853;28;20245;-71
2023/12/05 13:57:11;;;;;;;3.57;2.70;;;;;6.90;99589.00;;;;5085627;28;20229;-70
2023/12/05 13:59:57;;;;;;;2.63;2.43;;;;;6.80;99604.00;;;;5085968;28;20228;-69
2023/12/05 14:02:44;;;;;;;3.43;2.30;;;;;6.80;99603.00;;;;5081806;28;20244;-72
2023/12/05 14:05:31;;;;;;;2.67;2.40;;;;;6.80;99602.00;;;;5080289;28;20229;-71
2023/12/05 14:08:17;;;;;;;3.50;2.37;;;;;6.70;99615.00;;;;5081073;28;20282;-72